createdAt,value
2017-12-12T00:00:55.102Z,1.80
2017-12-12T00:03:30.052Z,1.60
2017-12-12T00:06:03.786Z,1.98
2017-12-12T00:08:37.399Z,1.80
2017-12-12T00:11:11.160Z,1.90
2017-12-12T00:13:44.904Z,1.70
2017-12-12T00:16:18.948Z,1.85
2017-12-12T00:18:52.524Z,2.00
2017-12-12T00:21:27.091Z,2.40
2017-12-12T00:24:00.820Z,1.80
2017-12-12T00:26:34.578Z,1.37
2017-12-12T00:29:08.269Z,1.70
2017-12-12T00:31:42.289Z,1.75
2017-12-12T00:34:16.541Z,1.48
2017-12-12T00:36:50.277Z,1.90
2017-12-12T00:39:23.921Z,1.27
2017-12-12T00:41:57.689Z,1.25
2017-12-12T00:44:31.397Z,1.95
2017-12-12T00:47:05.165Z,1.02
2017-12-12T00:49:38.952Z,1.27
2017-12-12T00:52:12.674Z,1.30
2017-12-12T00:54:46.451Z,1.45
2017-12-12T00:57:20.257Z,1.40
2017-12-12T00:59:54.020Z,1.30
2017-12-12T01:02:28.052Z,1.83
2017-12-12T01:05:02.659Z,1.40
2017-12-12T01:07:37.164Z,1.90
2017-12-12T01:10:11.531Z,1.80
2017-12-12T01:12:46.649Z,1.60
2017-12-12T01:15:20.438Z,1.52
2017-12-12T01:17:54.226Z,1.40
2017-12-12T01:20:28.002Z,1.60
2017-12-12T01:23:02.588Z,1.58
2017-12-12T01:25:36.217Z,1.50
2017-12-12T01:28:10.890Z,1.87
2017-12-12T01:30:44.578Z,1.58
2017-12-12T01:33:18.278Z,1.60
2017-12-12T01:35:52.546Z,1.42
2017-12-12T01:38:26.240Z,1.50
2017-12-12T01:41:00.006Z,1.50
2017-12-12T01:43:33.781Z,2.12
2017-12-12T01:46:08.287Z,1.70
2017-12-12T01:48:41.853Z,2.15
2017-12-12T01:51:15.588Z,2.10
2017-12-12T01:53:50.924Z,2.03
2017-12-12T01:56:25.345Z,1.80
2017-12-12T01:58:59.024Z,1.95
2017-12-12T02:01:33.470Z,1.77
2017-12-12T02:04:07.277Z,1.55
2017-12-12T02:06:41.077Z,1.65
2017-12-12T02:09:14.793Z,1.67
2017-12-12T02:11:48.496Z,1.55
2017-12-12T02:14:23.045Z,1.50
2017-12-12T02:16:56.796Z,1.30
2017-12-12T02:19:31.254Z,1.60
2017-12-12T02:22:06.460Z,1.65
2017-12-12T02:24:40.912Z,1.27
2017-12-12T02:27:16.440Z,2.08
2017-12-12T02:29:50.670Z,2.12
2017-12-12T02:32:27.622Z,2.05
2017-12-12T02:35:06.850Z,2.00
2017-12-12T02:37:42.047Z,1.95
2017-12-12T02:40:15.978Z,1.70
2017-12-12T02:42:50.751Z,2.53
2017-12-12T02:45:24.427Z,2.50
2017-12-12T02:47:59.040Z,2.72
2017-12-12T02:50:35.150Z,2.00
2017-12-12T02:53:09.580Z,2.03
2017-12-12T02:55:43.160Z,1.95
2017-12-12T02:58:19.853Z,1.67
2017-12-12T03:00:53.399Z,1.95
2017-12-12T03:03:27.972Z,2.17
2017-12-12T03:06:01.536Z,2.47
2017-12-12T03:08:35.368Z,2.70
2017-12-12T03:11:08.980Z,2.35
2017-12-12T03:13:43.502Z,2.80
2017-12-12T03:16:18.761Z,3.17
2017-12-12T03:18:52.344Z,2.85
2017-12-12T03:21:26.377Z,3.00
2017-12-12T03:26:42.106Z,3.62
2017-12-12T03:29:15.818Z,4.60
2017-12-12T03:31:49.528Z,7.15
2017-12-12T03:34:23.312Z,9.18
2017-12-12T03:36:57.053Z,9.70
2017-12-12T03:39:30.891Z,14.00
2017-12-12T03:42:04.471Z,14.77
2017-12-12T03:44:39.019Z,17.98
2017-12-12T03:47:12.809Z,16.55
2017-12-12T03:49:46.565Z,17.55
2017-12-12T03:52:20.336Z,14.05
2017-12-12T03:54:54.144Z,13.00
2017-12-12T03:57:32.196Z,12.23
2017-12-12T04:00:06.660Z,13.35
2017-12-12T04:02:40.732Z,13.13
2017-12-12T04:05:15.051Z,10.38
2017-12-12T04:07:48.696Z,11.75
2017-12-12T04:10:22.451Z,13.35
2017-12-12T04:12:56.995Z,9.93
2017-12-12T04:15:31.573Z,13.13
2017-12-12T04:18:05.877Z,11.52
2017-12-12T04:20:39.641Z,10.18
2017-12-12T04:23:14.213Z,9.85
2017-12-12T04:25:48.623Z,12.63
2017-12-12T04:28:22.764Z,10.85
2017-12-12T04:30:57.188Z,12.20
2017-12-12T04:33:30.798Z,10.63
2017-12-12T04:36:04.896Z,12.82
2017-12-12T04:38:40.232Z,11.25
2017-12-12T04:41:14.393Z,11.88
2017-12-12T04:43:48.281Z,11.27
2017-12-12T04:46:21.993Z,12.77
2017-12-12T04:48:55.797Z,12.73
2017-12-12T04:51:29.519Z,10.10
2017-12-12T04:54:03.288Z,14.75
2017-12-12T04:56:36.880Z,13.27
2017-12-12T04:59:11.233Z,11.60
2017-12-12T05:01:45.665Z,11.27
2017-12-12T05:04:20.962Z,15.55
2017-12-12T05:06:55.355Z,13.70
2017-12-12T05:09:29.411Z,13.18
2017-12-12T05:12:04.577Z,15.60
2017-12-12T05:14:38.312Z,14.85
2017-12-12T05:17:12.085Z,12.77
2017-12-12T05:19:45.876Z,14.25
2017-12-12T05:22:19.610Z,13.80
2017-12-12T05:24:53.300Z,13.90
2017-12-12T05:27:27.090Z,15.23
2017-12-12T05:30:00.900Z,16.08
2017-12-12T05:32:35.413Z,13.70
2017-12-12T05:35:10.212Z,15.77
2017-12-12T05:37:44.989Z,13.93
2017-12-12T05:40:19.714Z,12.40
2017-12-12T05:42:54.045Z,14.02
2017-12-12T05:45:28.822Z,12.10
2017-12-12T05:48:04.955Z,11.82
2017-12-12T05:50:40.236Z,11.52
2017-12-12T05:53:15.012Z,13.27
2017-12-12T05:55:49.905Z,9.93
2017-12-12T06:01:04.367Z,12.80
2017-12-12T06:03:39.694Z,13.75
2017-12-12T06:06:13.856Z,9.98
2017-12-12T06:08:48.733Z,14.35
2017-12-12T06:11:23.953Z,12.43
2017-12-12T06:13:58.391Z,14.30
2017-12-12T06:16:32.102Z,12.60
2017-12-12T06:19:05.894Z,14.43
2017-12-12T06:21:40.368Z,8.90
2017-12-12T06:24:16.160Z,14.80
2017-12-12T06:26:51.635Z,10.32
2017-12-12T06:29:25.206Z,15.40
2017-12-12T06:32:01.540Z,14.52
2017-12-12T06:34:35.330Z,15.07
2017-12-12T06:37:09.585Z,15.55
2017-12-12T06:39:43.334Z,9.73
2017-12-12T06:42:19.604Z,13.43
2017-12-12T06:44:54.080Z,12.15
2017-12-12T06:47:35.742Z,13.05
2017-12-12T06:50:13.953Z,14.20
2017-12-12T06:52:49.066Z,14.38
2017-12-12T06:55:25.213Z,15.38
2017-12-12T06:58:00.956Z,16.45
2017-12-12T07:00:37.864Z,14.70
2017-12-12T07:03:14.431Z,15.02
2017-12-12T07:05:49.123Z,16.02
2017-12-12T07:08:23.610Z,15.93
2017-12-12T07:10:57.523Z,12.20
2017-12-12T07:13:32.913Z,14.45
2017-12-12T07:16:07.915Z,11.57
2017-12-12T07:18:46.174Z,13.55
2017-12-12T07:21:20.688Z,16.95
2017-12-12T07:23:57.173Z,14.38
2017-12-12T07:26:32.247Z,14.15
2017-12-12T07:29:06.952Z,12.70
2017-12-12T07:31:41.885Z,16.30
2017-12-12T07:34:15.697Z,16.42
2017-12-12T07:36:52.097Z,16.85
2017-12-12T07:39:25.904Z,17.42
2017-12-12T07:42:01.467Z,14.05
2017-12-12T07:44:37.962Z,16.75
2017-12-12T07:47:11.530Z,20.33
2017-12-12T07:49:45.266Z,17.60
2017-12-12T07:52:19.033Z,17.45
2017-12-12T07:54:52.779Z,15.80
2017-12-12T07:57:28.327Z,18.77
2017-12-12T08:00:02.055Z,18.90
2017-12-12T08:02:35.737Z,17.00
2017-12-12T08:05:09.363Z,16.35
2017-12-12T08:07:43.602Z,17.27
2017-12-12T08:10:18.181Z,16.40
2017-12-12T08:12:52.662Z,16.80
2017-12-12T08:15:26.393Z,16.23
2017-12-12T08:18:00.950Z,14.27
2017-12-12T08:20:34.756Z,15.60
2017-12-12T08:23:08.498Z,15.98
2017-12-12T08:25:43.408Z,16.98
2017-12-12T08:28:17.104Z,15.20
2017-12-12T08:30:50.913Z,12.73
2017-12-12T08:33:24.683Z,17.35
2017-12-12T08:35:59.267Z,16.50
2017-12-12T08:38:33.044Z,11.75
2017-12-12T08:41:07.524Z,14.50
2017-12-12T08:43:41.917Z,15.20
2017-12-12T08:46:16.413Z,11.73
2017-12-12T08:48:50.635Z,12.30
2017-12-12T08:51:24.661Z,14.87
2017-12-12T08:53:58.494Z,13.02
2017-12-12T08:56:32.182Z,14.07
2017-12-12T08:59:06.488Z,15.10
2017-12-12T09:01:40.178Z,13.65
2017-12-12T09:04:15.498Z,13.85
2017-12-12T09:06:49.897Z,13.75
2017-12-12T09:09:23.965Z,14.85
2017-12-12T09:11:59.561Z,14.35
2017-12-12T09:14:34.736Z,11.90
2017-12-12T09:17:09.305Z,14.13
2017-12-12T09:19:43.063Z,14.13
2017-12-12T09:22:17.544Z,12.45
2017-12-12T09:24:51.217Z,13.73
2017-12-12T09:27:24.952Z,12.40
2017-12-12T09:29:58.925Z,13.73
2017-12-12T09:32:33.453Z,13.15
2017-12-12T09:35:07.188Z,13.18
2017-12-12T09:37:42.225Z,13.80
2017-12-12T09:40:17.877Z,12.40
2017-12-12T09:42:54.410Z,10.82
2017-12-12T09:45:32.402Z,8.70
2017-12-12T09:48:11.608Z,11.55
2017-12-12T09:53:28.371Z,11.95
2017-12-12T09:56:02.129Z,13.43
2017-12-12T09:58:35.816Z,11.90
2017-12-12T10:01:10.390Z,13.38
2017-12-12T10:03:44.421Z,12.95
2017-12-12T10:06:20.672Z,13.98
2017-12-12T10:08:54.336Z,12.73
2017-12-12T10:11:29.164Z,14.00
2017-12-12T10:14:02.877Z,14.40
2017-12-12T10:16:36.645Z,16.02
2017-12-12T10:19:11.323Z,14.43
2017-12-12T10:21:45.817Z,15.63
2017-12-12T10:24:19.433Z,12.23
2017-12-12T10:26:53.925Z,13.45
2017-12-12T10:29:27.700Z,14.65
2017-12-12T10:32:01.461Z,14.13
2017-12-12T10:34:36.772Z,15.20
2017-12-12T10:37:10.473Z,13.20
2017-12-12T10:39:44.181Z,15.80
2017-12-12T10:42:17.779Z,14.18
2017-12-12T10:44:51.520Z,15.18
2017-12-12T10:47:25.328Z,13.85
2017-12-12T10:49:59.084Z,14.77
2017-12-12T10:52:32.838Z,12.82
2017-12-12T10:55:06.603Z,14.70
2017-12-12T10:57:40.360Z,15.57
2017-12-12T11:00:14.257Z,14.45
2017-12-12T11:02:49.443Z,14.52
2017-12-12T11:05:23.142Z,15.30
2017-12-12T11:07:58.220Z,13.48
2017-12-12T11:10:31.942Z,12.13
2017-12-12T11:13:06.099Z,14.65
2017-12-12T11:15:39.838Z,13.07
2017-12-12T11:18:15.605Z,13.02
2017-12-12T11:20:49.342Z,12.02
2017-12-12T11:23:23.098Z,12.25
2017-12-12T11:25:56.911Z,11.65
2017-12-12T11:28:31.186Z,11.07
2017-12-12T11:31:04.945Z,11.23
2017-12-12T11:33:39.949Z,13.20
2017-12-12T11:36:17.677Z,10.63
2017-12-12T11:39:00.397Z,10.85
2017-12-12T11:47:45.516Z,10.60
2017-12-12T11:52:58.375Z,8.38
2017-12-12T11:55:35.089Z,9.40
2017-12-12T11:58:11.345Z,10.05
2017-12-12T12:03:38.544Z,9.38
2017-12-12T12:08:54.705Z,8.75
2017-12-12T12:11:30.093Z,9.95
2017-12-12T12:14:07.480Z,8.95
2017-12-12T12:16:41.060Z,7.90
2017-12-12T12:19:17.583Z,6.65
2017-12-12T12:24:37.696Z,6.15
2017-12-12T12:33:16.295Z,6.75
2017-12-12T12:35:57.644Z,7.55
2017-12-12T12:38:35.570Z,6.55
2017-12-12T12:41:11.590Z,7.00
2017-12-12T12:46:33.218Z,6.10
2017-12-12T12:49:07.109Z,6.57
2017-12-12T12:51:42.387Z,6.80
2017-12-12T12:54:19.934Z,6.57
2017-12-12T12:56:54.628Z,6.47
2017-12-12T12:59:29.201Z,6.37
2017-12-12T13:02:05.981Z,6.10
2017-12-12T13:04:45.982Z,6.53
2017-12-12T13:07:23.202Z,7.07
2017-12-12T13:09:58.236Z,6.80
2017-12-12T13:12:35.447Z,6.15
2017-12-12T13:15:15.745Z,4.97
2017-12-12T13:17:49.387Z,6.20
2017-12-12T13:20:24.349Z,9.20
2017-12-12T13:23:00.305Z,8.35
2017-12-12T13:28:15.364Z,7.35
2017-12-12T13:30:51.251Z,9.95
2017-12-12T13:33:24.825Z,7.37
2017-12-12T13:35:59.292Z,8.15
2017-12-12T13:38:33.931Z,9.07
2017-12-12T13:41:07.711Z,7.47
2017-12-12T13:43:42.762Z,9.40
2017-12-12T13:46:17.430Z,7.93
2017-12-12T13:48:52.881Z,6.93
2017-12-12T13:51:27.571Z,8.43
2017-12-12T13:54:05.145Z,8.48
2017-12-12T13:56:42.993Z,9.43
2017-12-12T13:59:20.688Z,8.95
2017-12-12T14:02:00.885Z,6.90
2017-12-12T14:04:34.857Z,7.68
2017-12-12T14:07:08.503Z,8.20
2017-12-12T14:09:42.342Z,6.85
2017-12-12T14:12:16.011Z,8.80
2017-12-12T14:14:49.791Z,6.43
2017-12-12T14:17:24.288Z,8.02
2017-12-12T14:19:58.830Z,6.05
2017-12-12T14:22:32.623Z,8.07
2017-12-12T14:25:06.292Z,7.65
2017-12-12T14:27:40.063Z,8.20
2017-12-12T14:30:14.420Z,7.78
2017-12-12T14:32:48.062Z,7.45
2017-12-12T14:35:21.880Z,7.97
2017-12-12T14:37:55.589Z,8.30
2017-12-12T14:40:29.667Z,9.32
2017-12-12T14:43:03.369Z,8.30
2017-12-12T14:45:37.098Z,9.82
2017-12-12T14:48:11.774Z,9.95
2017-12-12T14:50:45.486Z,7.60
2017-12-12T14:53:19.473Z,9.43
2017-12-12T14:55:53.941Z,9.20
2017-12-12T14:58:27.771Z,9.52
2017-12-12T15:01:01.660Z,11.00
2017-12-12T15:03:35.382Z,10.32
2017-12-12T15:06:09.144Z,7.15
2017-12-12T15:08:42.971Z,9.93
2017-12-12T15:11:16.784Z,10.82
2017-12-12T15:13:52.070Z,10.30
2017-12-12T15:16:25.707Z,9.60
2017-12-12T15:19:01.385Z,11.00
2017-12-12T15:21:36.007Z,9.95
2017-12-12T15:24:10.695Z,10.85
2017-12-12T15:26:45.543Z,10.57
2017-12-12T15:29:21.221Z,11.27
2017-12-12T15:31:54.933Z,11.68
2017-12-12T15:34:29.620Z,10.65
2017-12-12T15:37:03.232Z,10.32
2017-12-12T15:39:36.844Z,12.63
2017-12-12T15:42:10.942Z,11.30
2017-12-12T15:44:45.686Z,12.65
2017-12-12T15:47:19.445Z,11.40
2017-12-12T15:49:53.188Z,11.68
2017-12-12T15:52:27.345Z,12.18
2017-12-12T15:55:03.156Z,12.25
2017-12-12T16:00:23.389Z,9.18
2017-12-12T16:02:57.031Z,10.40
2017-12-12T16:05:30.712Z,10.48
2017-12-12T16:08:04.445Z,8.90
2017-12-12T16:10:38.201Z,12.37
2017-12-12T16:13:11.932Z,11.12
2017-12-12T16:15:46.465Z,11.85
2017-12-12T16:18:20.049Z,12.13
2017-12-12T16:20:53.760Z,10.25
2017-12-12T16:23:27.598Z,13.02
2017-12-12T16:26:01.350Z,12.57
2017-12-12T16:28:35.078Z,14.65
2017-12-12T16:31:09.600Z,14.98
2017-12-12T16:33:43.380Z,14.75
2017-12-12T16:36:17.146Z,14.40
2017-12-12T16:38:50.888Z,16.00
2017-12-12T16:41:24.831Z,14.20
2017-12-12T16:43:58.561Z,17.98
2017-12-12T16:46:32.277Z,15.52
2017-12-12T16:49:06.133Z,17.33
2017-12-12T16:51:39.811Z,16.25
2017-12-12T16:54:13.550Z,20.58
2017-12-12T16:56:47.283Z,19.77
2017-12-12T16:59:21.052Z,19.85
2017-12-12T17:01:54.756Z,19.50
2017-12-12T17:04:28.504Z,22.02
2017-12-12T17:07:02.202Z,22.67
2017-12-12T17:09:35.960Z,20.67
2017-12-12T17:12:10.426Z,21.50
2017-12-12T17:14:44.177Z,20.10
2017-12-12T17:17:17.851Z,18.27
2017-12-12T17:19:51.581Z,22.98
2017-12-12T17:22:25.344Z,24.20
2017-12-12T17:24:59.163Z,24.20
2017-12-12T17:27:32.852Z,23.92
2017-12-12T17:30:06.612Z,25.27
2017-12-12T17:32:40.416Z,21.27
2017-12-12T17:35:14.162Z,25.80
2017-12-12T17:37:47.871Z,26.65
2017-12-12T17:40:21.649Z,24.67
2017-12-12T17:42:56.174Z,26.48
2017-12-12T17:45:30.717Z,26.73
2017-12-12T17:48:04.397Z,25.10
2017-12-12T17:50:38.789Z,23.85
2017-12-12T17:53:25.026Z,24.55
2017-12-12T17:55:58.755Z,25.90
2017-12-12T17:58:32.522Z,25.23
2017-12-12T18:01:06.249Z,25.48
2017-12-12T18:03:40.784Z,25.75
2017-12-12T18:06:14.391Z,25.02
2017-12-12T18:08:48.165Z,26.45
2017-12-12T18:11:21.863Z,25.42
2017-12-12T18:13:55.637Z,23.85
2017-12-12T18:16:30.030Z,26.33
2017-12-12T18:19:03.822Z,24.50
2017-12-12T18:21:37.584Z,26.65
2017-12-12T18:24:11.242Z,26.90
2017-12-12T18:26:44.894Z,26.17
2017-12-12T18:29:18.564Z,26.95
2017-12-12T18:31:52.273Z,27.77
2017-12-12T18:34:26.836Z,31.50
2017-12-12T18:37:01.280Z,33.92
2017-12-12T18:39:34.900Z,30.35
2017-12-12T18:42:08.674Z,30.95
2017-12-12T18:44:42.378Z,29.90
2017-12-12T18:47:16.165Z,32.75
2017-12-12T18:49:49.884Z,31.73
2017-12-12T18:52:24.525Z,30.33
2017-12-12T18:57:40.303Z,24.35
2017-12-12T19:00:14.832Z,23.30
2017-12-12T19:02:48.531Z,24.25
2017-12-12T19:05:22.577Z,27.48
2017-12-12T19:08:11.100Z,24.50
2017-12-12T19:10:44.789Z,26.48
2017-12-12T19:13:18.713Z,24.52
2017-12-12T19:15:52.276Z,25.35
2017-12-12T19:18:26.749Z,26.85
2017-12-12T19:21:00.596Z,23.12
2017-12-12T19:23:34.568Z,26.20
2017-12-12T19:26:08.239Z,25.80
2017-12-12T19:28:43.152Z,27.60
2017-12-12T19:31:16.986Z,28.75
2017-12-12T19:33:50.785Z,22.17
2017-12-12T19:36:24.536Z,24.08
2017-12-12T19:38:59.074Z,23.77
2017-12-12T19:41:33.621Z,21.73
2017-12-12T19:44:07.363Z,25.35
2017-12-12T19:46:41.092Z,21.58
2017-12-12T19:49:15.889Z,21.80
2017-12-12T19:51:49.506Z,24.30
2017-12-12T19:54:23.320Z,25.77
2017-12-12T19:56:56.953Z,24.92
2017-12-12T19:59:30.736Z,24.63
2017-12-12T20:02:04.423Z,23.33
2017-12-12T20:04:38.377Z,23.52
2017-12-12T20:07:12.841Z,24.40
2017-12-12T20:09:47.757Z,23.83
2017-12-12T20:15:01.075Z,20.00
2017-12-12T20:17:35.452Z,21.25
2017-12-12T20:20:13.892Z,25.60
2017-12-12T20:22:47.606Z,23.40
2017-12-12T20:25:23.333Z,24.77
2017-12-12T20:28:00.040Z,23.95
2017-12-12T20:30:33.920Z,24.12
2017-12-12T20:33:14.133Z,25.40
2017-12-12T20:36:12.705Z,22.87
2017-12-12T20:44:55.214Z,24.33
2017-12-12T20:47:35.393Z,24.27
2017-12-12T20:50:11.721Z,24.50
2017-12-12T20:52:53.911Z,25.60
2017-12-12T20:55:29.192Z,25.88
2017-12-12T20:58:04.589Z,26.37
2017-12-12T21:00:38.642Z,27.37
2017-12-12T21:05:52.125Z,24.15
2017-12-12T21:08:26.922Z,27.60
2017-12-12T21:11:02.860Z,24.08
2017-12-12T21:13:36.608Z,26.05
2017-12-12T21:16:10.627Z,29.58
2017-12-12T21:18:45.243Z,27.08
2017-12-12T21:21:19.652Z,26.08
2017-12-12T21:23:53.381Z,24.73
2017-12-12T21:26:27.821Z,25.62
2017-12-12T21:29:01.610Z,24.98
2017-12-12T21:31:35.438Z,19.90
2017-12-12T21:34:10.030Z,24.42
2017-12-12T21:36:43.917Z,22.35
2017-12-12T21:39:18.577Z,23.45
2017-12-12T21:41:52.565Z,22.00
2017-12-12T21:44:26.463Z,21.85
2017-12-12T21:47:00.441Z,24.83
2017-12-12T21:49:34.817Z,23.30
2017-12-12T21:52:08.806Z,26.17
2017-12-12T21:54:43.185Z,24.77
2017-12-12T21:57:17.546Z,24.73
2017-12-12T21:59:52.346Z,29.17
2017-12-12T22:02:26.656Z,26.50
2017-12-12T22:05:00.592Z,23.80
2017-12-12T22:07:34.466Z,26.10
2017-12-12T22:10:08.170Z,26.37
2017-12-12T22:12:41.914Z,27.70
2017-12-12T22:15:15.683Z,29.15
2017-12-12T22:17:49.423Z,27.62
2017-12-12T22:20:23.240Z,28.27
2017-12-12T22:22:57.425Z,26.50
2017-12-12T22:25:31.109Z,28.00
2017-12-12T22:28:04.869Z,32.88
2017-12-12T22:30:38.594Z,32.85
2017-12-12T22:33:12.391Z,26.35
2017-12-12T22:35:46.689Z,30.00
2017-12-12T22:38:20.611Z,27.25
2017-12-12T22:40:54.969Z,31.30
2017-12-12T22:43:28.786Z,27.83
2017-12-12T22:46:02.473Z,42.95
2017-12-12T22:48:36.290Z,28.73
2017-12-12T22:51:10.085Z,26.08
2017-12-12T22:53:44.610Z,27.67
2017-12-12T22:56:18.288Z,23.90
2017-12-12T22:58:52.800Z,24.15
2017-12-12T23:01:28.073Z,23.62
2017-12-12T23:04:01.848Z,24.75
2017-12-12T23:06:35.891Z,24.27
2017-12-12T23:09:09.654Z,38.33
2017-12-12T23:11:43.425Z,22.27
2017-12-12T23:14:17.485Z,55.83
2017-12-12T23:16:51.289Z,32.00
2017-12-12T23:19:29.876Z,25.20
2017-12-12T23:22:03.548Z,22.90
2017-12-12T23:24:39.005Z,22.60
2017-12-12T23:27:13.539Z,20.88
2017-12-12T23:29:48.733Z,20.45
2017-12-12T23:32:23.631Z,21.67
2017-12-12T23:34:57.268Z,24.95
2017-12-12T23:37:32.530Z,19.33
2017-12-12T23:40:06.312Z,24.00
2017-12-12T23:42:40.052Z,19.23
2017-12-12T23:45:13.825Z,20.35
2017-12-12T23:47:47.629Z,20.33
2017-12-12T23:50:24.395Z,22.25
2017-12-12T23:52:59.973Z,21.75
2017-12-12T23:55:34.112Z,24.00
2017-12-12T23:58:08.522Z,25.55
